createdAt,value
2023-03-29T00:00:14.690Z,44.44
2023-03-29T00:04:14.938Z,39.65
2023-03-29T00:08:15.088Z,47.11
2023-03-29T00:12:15.367Z,57.42
2023-03-29T00:16:15.521Z,65.80
2023-03-29T00:20:15.640Z,68.21
2023-03-29T00:24:15.880Z,62.02
2023-03-29T00:28:16.105Z,64.63
2023-03-29T00:32:16.346Z,71.28
2023-03-29T00:36:16.545Z,69.80
2023-03-29T00:40:17.369Z,79.51
2023-03-29T00:44:16.964Z,75.10
2023-03-29T00:48:17.152Z,75.97
2023-03-29T00:52:17.504Z,77.80
2023-03-29T00:56:17.601Z,82.84
2023-03-29T01:00:17.727Z,84.56
2023-03-29T01:04:17.555Z,75.35
2023-03-29T01:08:17.501Z,70.45
2023-03-29T01:12:17.485Z,68.97
2023-03-29T01:16:17.603Z,67.95
2023-03-29T01:20:17.425Z,76.18
2023-03-29T01:24:17.362Z,73.45
2023-03-29T01:28:17.341Z,66.81
2023-03-29T01:32:17.342Z,52.04
2023-03-29T01:36:17.288Z,49.78
2023-03-29T01:40:17.359Z,56.90
2023-03-29T01:44:17.564Z,45.83
2023-03-29T01:48:17.746Z,49.36
2023-03-29T01:52:17.947Z,47.27
2023-03-29T01:56:17.912Z,51.73
2023-03-29T02:00:17.826Z,48.20
2023-03-29T02:04:17.800Z,51.29
2023-03-29T02:08:17.776Z,48.79
2023-03-29T02:12:17.769Z,57.30
2023-03-29T02:16:17.744Z,59.42
2023-03-29T02:20:17.760Z,61.73
2023-03-29T02:24:17.624Z,50.60
2023-03-29T02:28:17.898Z,54.54
2023-03-29T02:32:17.621Z,57.00
2023-03-29T02:36:17.656Z,52.81
2023-03-29T02:40:17.788Z,52.63
2023-03-29T02:44:17.954Z,58.67
2023-03-29T02:48:18.171Z,53.78
2023-03-29T02:52:18.384Z,53.67
2023-03-29T02:56:18.656Z,51.63
2023-03-29T03:00:18.845Z,50.80
2023-03-29T03:04:18.832Z,77.61
2023-03-29T03:08:18.790Z,66.45
2023-03-29T03:12:18.740Z,45.91
2023-03-29T03:16:18.796Z,66.39
2023-03-29T03:20:18.761Z,56.89
2023-03-29T03:24:18.789Z,49.30
2023-03-29T03:28:18.684Z,41.13
2023-03-29T03:32:18.630Z,37.51
2023-03-29T03:36:18.593Z,35.73
2023-03-29T03:40:18.603Z,58.76
2023-03-29T03:44:18.580Z,41.47
2023-03-29T03:48:18.584Z,54.71
2023-03-29T03:52:18.592Z,34.68
2023-03-29T03:56:19.434Z,41.94
2023-03-29T04:00:18.524Z,56.24
2023-03-29T04:04:18.537Z,68.00
2023-03-29T04:08:18.985Z,64.39
2023-03-29T04:12:18.472Z,65.79
2023-03-29T04:16:18.588Z,74.16
2023-03-29T04:20:18.423Z,93.48
2023-03-29T04:24:18.418Z,86.84
2023-03-29T04:28:18.419Z,93.77
2023-03-29T04:32:18.395Z,91.48
2023-03-29T04:36:18.414Z,82.49
2023-03-29T04:40:18.360Z,85.55
2023-03-29T04:44:18.344Z,73.10
2023-03-29T04:48:18.301Z,90.14
2023-03-29T04:52:18.265Z,113.33
2023-03-29T04:56:18.346Z,143.86
2023-03-29T05:00:18.176Z,157.24
2023-03-29T05:04:18.233Z,169.74
2023-03-29T05:08:18.079Z,184.54
2023-03-29T05:12:18.019Z,202.46
2023-03-29T05:16:18.022Z,211.86
2023-03-29T05:20:17.987Z,222.42
2023-03-29T05:24:17.914Z,234.84
2023-03-29T05:28:17.821Z,246.42
2023-03-29T05:32:17.755Z,249.72
2023-03-29T05:36:17.886Z,231.65
2023-03-29T05:40:18.010Z,250.00
2023-03-29T05:44:18.515Z,250.45
2023-03-29T05:48:17.848Z,249.59
2023-03-29T05:52:19.485Z,249.28
2023-03-29T05:56:18.483Z,250.00
2023-03-29T06:00:18.173Z,248.51
2023-03-29T06:04:18.586Z,249.24
2023-03-29T06:08:18.502Z,250.00
2023-03-29T06:12:18.222Z,250.00
2023-03-29T06:16:18.266Z,248.26
2023-03-29T06:20:18.221Z,249.40
2023-03-29T06:24:18.187Z,249.91
2023-03-29T06:28:18.213Z,249.88
2023-03-29T06:32:18.296Z,248.31
2023-03-29T06:36:18.289Z,249.43
2023-03-29T06:40:18.061Z,246.04
2023-03-29T06:44:18.157Z,249.48
2023-03-29T06:48:18.530Z,248.72
2023-03-29T06:52:18.542Z,247.14
2023-03-29T06:56:18.173Z,242.85
2023-03-29T07:00:18.135Z,241.96
2023-03-29T07:04:18.663Z,243.03
2023-03-29T07:08:18.127Z,243.67
2023-03-29T07:12:18.519Z,248.36
2023-03-29T07:16:18.220Z,248.21
2023-03-29T07:20:18.496Z,244.74
2023-03-29T07:24:18.306Z,248.04
2023-03-29T07:28:19.036Z,248.97
2023-03-29T07:32:18.690Z,245.22
2023-03-29T07:36:18.761Z,246.64
2023-03-29T07:40:19.070Z,240.67
2023-03-29T07:44:19.516Z,241.57
2023-03-29T07:48:18.829Z,229.77
2023-03-29T07:52:18.769Z,233.26
2023-03-29T07:56:18.680Z,229.16
2023-03-29T08:00:18.642Z,232.58
2023-03-29T08:04:18.742Z,232.40
2023-03-29T08:08:18.497Z,232.53
2023-03-29T08:12:18.350Z,237.00
2023-03-29T08:16:18.331Z,234.10
2023-03-29T08:20:18.202Z,231.70
2023-03-29T08:24:20.821Z,234.70
2023-03-29T08:28:18.072Z,237.53
2023-03-29T08:32:17.980Z,238.81
2023-03-29T08:36:19.558Z,238.94
2023-03-29T08:40:17.779Z,248.52
2023-03-29T08:44:17.672Z,245.08
2023-03-29T08:48:18.081Z,247.41
2023-03-29T08:52:18.587Z,246.65
2023-03-29T08:56:17.689Z,242.13
2023-03-29T09:00:17.870Z,245.23
2023-03-29T09:04:17.725Z,244.10
2023-03-29T09:08:18.051Z,238.60
2023-03-29T09:12:17.570Z,245.88
2023-03-29T09:16:18.118Z,242.64
2023-03-29T09:20:17.427Z,245.10
2023-03-29T09:24:17.329Z,243.39
2023-03-29T09:28:17.597Z,249.60
2023-03-29T09:32:17.137Z,249.57
2023-03-29T09:36:17.162Z,249.14
2023-03-29T09:40:17.109Z,249.91
2023-03-29T09:44:29.821Z,246.98
2023-03-29T09:48:18.061Z,244.26
2023-03-29T09:52:17.066Z,239.79
2023-03-29T09:56:16.884Z,233.71
2023-03-29T10:00:17.102Z,235.61
2023-03-29T10:04:17.084Z,228.70
2023-03-29T10:08:18.929Z,228.39
2023-03-29T10:12:17.116Z,225.40
2023-03-29T10:16:16.913Z,224.05
2023-03-29T10:20:16.695Z,224.80
2023-03-29T10:24:17.158Z,221.43
2023-03-29T10:28:16.583Z,220.14
2023-03-29T10:32:16.626Z,218.32
2023-03-29T10:36:16.586Z,222.45
2023-03-29T10:40:16.605Z,218.72
2023-03-29T10:44:16.264Z,215.98
2023-03-29T10:48:16.208Z,215.09
2023-03-29T10:52:16.106Z,216.18
2023-03-29T10:56:16.087Z,214.47
2023-03-29T11:00:15.951Z,213.75
2023-03-29T11:04:15.847Z,207.05
2023-03-29T11:08:15.943Z,209.68
2023-03-29T11:12:16.620Z,208.84
2023-03-29T11:16:16.162Z,208.93
2023-03-29T11:20:16.040Z,204.69
2023-03-29T11:24:16.065Z,204.40
2023-03-29T11:28:16.226Z,207.67
2023-03-29T11:32:16.113Z,193.43
2023-03-29T11:36:16.666Z,193.06
2023-03-29T11:40:16.229Z,184.37
2023-03-29T11:44:16.458Z,198.31
2023-03-29T11:48:16.441Z,190.13
2023-03-29T11:52:16.563Z,182.91
2023-03-29T11:56:24.193Z,179.04
2023-03-29T12:00:16.616Z,185.81
2023-03-29T12:04:16.682Z,193.32
2023-03-29T12:08:16.494Z,190.32
2023-03-29T12:12:16.407Z,193.51
2023-03-29T12:16:16.352Z,195.00
2023-03-29T12:20:16.164Z,188.24
2023-03-29T12:24:16.104Z,189.84
2023-03-29T12:28:17.630Z,180.61
2023-03-29T12:32:16.001Z,177.53
2023-03-29T12:36:16.001Z,176.31
2023-03-29T12:40:15.899Z,174.97
2023-03-29T12:44:15.781Z,176.41
2023-03-29T12:48:15.720Z,180.92
2023-03-29T12:52:15.721Z,176.28
2023-03-29T12:56:15.671Z,173.68
2023-03-29T13:00:15.653Z,176.04
2023-03-29T13:04:15.589Z,174.68
2023-03-29T13:08:15.560Z,169.53
2023-03-29T13:12:25.677Z,169.16
2023-03-29T13:16:15.555Z,170.82
2023-03-29T13:20:15.378Z,175.39
2023-03-29T13:24:15.281Z,173.01
2023-03-29T13:28:15.202Z,176.74
2023-03-29T13:32:15.105Z,172.80
2023-03-29T13:36:15.047Z,165.79
2023-03-29T13:40:14.909Z,174.94
2023-03-29T13:44:14.827Z,176.49
2023-03-29T13:48:14.759Z,173.71
2023-03-29T13:52:14.642Z,165.23
2023-03-29T13:56:14.676Z,166.04
2023-03-29T14:00:14.699Z,170.97
2023-03-29T14:04:14.805Z,171.31
2023-03-29T14:08:14.880Z,174.38
2023-03-29T14:12:14.932Z,172.39
2023-03-29T14:16:15.044Z,176.17
2023-03-29T14:20:15.090Z,177.05
2023-03-29T14:24:15.268Z,171.19
2023-03-29T14:28:15.314Z,169.03
2023-03-29T14:32:15.467Z,173.13
2023-03-29T14:36:15.522Z,176.33
2023-03-29T14:40:15.611Z,177.32
2023-03-29T14:44:15.676Z,179.30
2023-03-29T14:48:15.867Z,169.08
2023-03-29T14:52:15.895Z,171.14
2023-03-29T14:56:16.026Z,176.07
2023-03-29T15:00:16.172Z,176.58
2023-03-29T15:04:16.228Z,170.71
2023-03-29T15:08:16.309Z,174.33
2023-03-29T15:12:16.377Z,177.81
2023-03-29T15:16:16.528Z,177.61
2023-03-29T15:20:16.733Z,178.08
2023-03-29T15:24:16.675Z,180.60
2023-03-29T15:28:16.754Z,182.59
2023-03-29T15:32:16.841Z,177.19
2023-03-29T15:36:17.058Z,179.20
2023-03-29T15:40:17.188Z,179.77
2023-03-29T15:44:17.203Z,177.77
2023-03-29T15:48:17.331Z,178.04
2023-03-29T15:52:17.498Z,176.34
2023-03-29T15:56:17.608Z,176.40
2023-03-29T16:00:17.669Z,177.79
2023-03-29T16:04:17.785Z,175.56
2023-03-29T16:08:17.892Z,179.80
2023-03-29T16:12:17.935Z,178.04
2023-03-29T16:16:18.075Z,179.03
2023-03-29T16:20:18.149Z,174.24
2023-03-29T16:24:18.177Z,174.53
2023-03-29T16:28:18.278Z,177.75
2023-03-29T16:32:18.369Z,181.11
2023-03-29T16:36:18.400Z,183.64
2023-03-29T16:40:18.385Z,179.57
2023-03-29T16:44:20.753Z,177.37
2023-03-29T16:48:18.412Z,181.45
2023-03-29T16:52:18.327Z,186.22
2023-03-29T16:56:19.248Z,186.05
2023-03-29T17:00:18.178Z,183.67
2023-03-29T17:04:18.136Z,184.40
2023-03-29T17:08:18.013Z,182.17
2023-03-29T17:12:18.142Z,180.66
2023-03-29T17:16:18.227Z,177.66
2023-03-29T17:20:18.164Z,173.77
2023-03-29T17:24:18.138Z,173.85
2023-03-29T17:28:18.108Z,166.81
2023-03-29T17:32:18.039Z,163.85
2023-03-29T17:36:18.028Z,154.30
2023-03-29T17:40:17.951Z,153.66
2023-03-29T17:44:17.916Z,142.36
2023-03-29T17:48:17.929Z,143.61
2023-03-29T17:52:17.924Z,144.10
2023-03-29T17:56:17.957Z,141.92
2023-03-29T18:00:17.941Z,141.56
2023-03-29T18:04:17.957Z,137.46
2023-03-29T18:08:17.921Z,135.85
2023-03-29T18:12:17.950Z,132.99
2023-03-29T18:16:17.990Z,132.07
2023-03-29T18:20:18.033Z,125.13
2023-03-29T18:24:18.057Z,125.08
2023-03-29T18:28:18.119Z,125.91
2023-03-29T18:32:18.202Z,124.53
2023-03-29T18:36:18.237Z,122.63
2023-03-29T18:40:18.273Z,123.40
2023-03-29T18:44:18.298Z,120.10
2023-03-29T18:48:18.355Z,121.45
2023-03-29T18:52:18.415Z,118.10
2023-03-29T18:56:18.477Z,117.06
2023-03-29T19:00:18.491Z,120.67
2023-03-29T19:04:18.577Z,115.14
2023-03-29T19:08:18.606Z,112.73
2023-03-29T19:12:18.678Z,108.06
2023-03-29T19:16:18.866Z,111.36
2023-03-29T19:20:18.882Z,108.87
2023-03-29T19:24:18.918Z,107.91
2023-03-29T19:28:19.011Z,111.02
2023-03-29T19:32:19.073Z,109.72
2023-03-29T19:36:19.162Z,108.88
2023-03-29T19:40:19.324Z,111.62
2023-03-29T19:44:19.338Z,105.23
2023-03-29T19:48:23.051Z,105.79
2023-03-29T19:52:19.411Z,103.76
2023-03-29T19:56:19.360Z,104.75
2023-03-29T20:00:19.353Z,105.71
2023-03-29T20:04:19.306Z,98.60
2023-03-29T20:08:19.253Z,100.06
2023-03-29T20:12:19.217Z,99.14
2023-03-29T20:16:19.276Z,98.94
2023-03-29T20:20:19.365Z,99.12
2023-03-29T20:24:19.490Z,94.70
2023-03-29T20:28:19.594Z,94.74
2023-03-29T20:32:19.828Z,92.66
2023-03-29T20:36:19.955Z,94.81
2023-03-29T20:40:20.057Z,91.78
2023-03-29T20:44:20.140Z,91.44
2023-03-29T20:48:20.280Z,93.11
2023-03-29T20:52:20.435Z,91.99
2023-03-29T20:56:20.606Z,89.27
2023-03-29T21:00:20.741Z,93.02
2023-03-29T21:04:20.872Z,94.52
2023-03-29T21:08:21.047Z,94.86
2023-03-29T21:12:21.172Z,91.82
2023-03-29T21:16:21.371Z,89.91
2023-03-29T21:20:21.535Z,93.74
2023-03-29T21:24:21.683Z,93.01
2023-03-29T21:28:21.793Z,93.68
2023-03-29T21:32:21.965Z,93.32
2023-03-29T21:36:22.122Z,92.04
2023-03-29T21:40:22.263Z,95.46
2023-03-29T21:44:22.484Z,92.42
2023-03-29T21:48:22.594Z,89.82
2023-03-29T21:52:22.733Z,90.88
2023-03-29T21:56:22.868Z,92.16
2023-03-29T22:00:23.035Z,89.97
2023-03-29T22:04:35.722Z,93.08
2023-03-29T22:08:24.088Z,90.95
2023-03-29T22:12:23.020Z,92.65
2023-03-29T22:16:23.000Z,92.96
2023-03-29T22:20:23.126Z,89.69
2023-03-29T22:24:23.240Z,89.51
2023-03-29T22:28:23.378Z,89.56
2023-03-29T22:32:23.575Z,91.24
2023-03-29T22:36:23.664Z,89.70
2023-03-29T22:40:23.873Z,88.17
2023-03-29T22:44:24.000Z,89.74
2023-03-29T22:48:24.147Z,89.15
2023-03-29T22:52:24.311Z,91.60
2023-03-29T22:56:24.437Z,92.69
2023-03-29T23:00:24.587Z,88.37
2023-03-29T23:04:24.815Z,88.73
2023-03-29T23:08:24.916Z,88.08
2023-03-29T23:12:25.057Z,85.20
2023-03-29T23:16:25.279Z,84.99
2023-03-29T23:20:25.382Z,87.71
2023-03-29T23:24:25.551Z,87.10
2023-03-29T23:28:25.696Z,85.44
2023-03-29T23:32:25.863Z,77.76
2023-03-29T23:36:26.044Z,78.83
2023-03-29T23:40:26.178Z,77.35
2023-03-29T23:44:26.305Z,79.35
2023-03-29T23:48:26.428Z,77.90
2023-03-29T23:52:26.573Z,76.55
2023-03-29T23:56:26.768Z,73.64
